createdAt,value
2022-11-04T00:04:19.809Z,13.7
2022-11-04T00:18:19.790Z,13.8
2022-11-04T00:32:19.826Z,13.7
2022-11-04T00:46:19.814Z,13.8
2022-11-04T01:00:19.841Z,13.9
2022-11-04T01:14:19.819Z,14.0
2022-11-04T01:28:19.829Z,14.1
2022-11-04T01:42:20.062Z,14.1
2022-11-04T01:56:20.058Z,14.0
2022-11-04T02:10:20.103Z,13.9
2022-11-04T02:24:20.081Z,13.9
2022-11-04T02:38:20.118Z,13.9
2022-11-04T02:52:20.101Z,13.8
2022-11-04T03:06:20.098Z,13.8
2022-11-04T03:20:20.849Z,13.7
2022-11-04T03:34:20.112Z,13.7
2022-11-04T03:48:20.118Z,13.6
2022-11-04T04:02:20.144Z,13.7
2022-11-04T04:17:20.129Z,13.6
2022-11-04T04:31:20.106Z,13.7
2022-11-04T04:45:20.170Z,13.5
2022-11-04T04:59:20.131Z,13.6
2022-11-04T05:13:20.133Z,13.8
2022-11-04T05:27:20.169Z,13.8
2022-11-04T05:41:20.191Z,13.8
2022-11-04T05:55:20.219Z,14.0
2022-11-04T06:10:20.210Z,13.9
2022-11-04T06:25:20.215Z,14.1
2022-11-04T06:40:20.207Z,14.2
2022-11-04T06:55:20.207Z,14.4
2022-11-04T07:10:20.219Z,14.7
2022-11-04T07:26:20.205Z,15.2
2022-11-04T07:41:20.221Z,15.2
2022-11-04T07:56:20.213Z,15.3
2022-11-04T08:11:20.207Z,15.0
2022-11-04T08:27:20.205Z,14.9
2022-11-04T08:43:20.231Z,14.4
2022-11-04T08:58:20.323Z,13.7
2022-11-04T09:13:20.323Z,13.7
2022-11-04T09:28:20.346Z,14.8
2022-11-04T09:43:20.346Z,15.8
2022-11-04T09:58:20.388Z,15.6
2022-11-04T10:13:20.360Z,15.6
2022-11-04T10:28:20.356Z,15.7
2022-11-04T10:43:20.366Z,15.8
2022-11-04T10:58:20.349Z,16.0
2022-11-04T11:13:20.367Z,15.8
2022-11-04T11:28:20.368Z,16.0
2022-11-04T11:43:20.373Z,16.7
2022-11-04T12:13:24.118Z,17.3
2022-11-04T12:28:20.426Z,17.8
2022-11-04T12:43:20.495Z,18.6
2022-11-04T12:58:20.489Z,18.1
2022-11-04T13:13:20.484Z,18.8
2022-11-04T13:28:20.477Z,18.9
2022-11-04T13:43:20.518Z,19.2
2022-11-04T13:58:20.520Z,19.4
2022-11-04T14:13:20.546Z,20.3
2022-11-04T14:28:20.566Z,20.2
2022-11-04T14:44:20.543Z,20.2
2022-11-04T14:59:20.683Z,18.9
2022-11-04T15:14:20.705Z,18.1
2022-11-04T15:29:20.693Z,14.7
2022-11-04T15:44:20.700Z,13.3
2022-11-04T15:59:20.727Z,12.7
2022-11-04T16:15:20.735Z,11.9
2022-11-04T16:30:20.732Z,11.5
2022-11-04T16:44:20.728Z,10.9
2022-11-04T16:58:20.770Z,11.1
2022-11-04T17:12:20.778Z,10.6
2022-11-04T17:26:20.812Z,10.3
2022-11-04T17:40:20.856Z,10.4
2022-11-04T17:54:20.877Z,10.5
2022-11-04T18:08:20.909Z,10.2
2022-11-04T18:22:20.997Z,10.1
2022-11-04T18:36:20.999Z,10.1
2022-11-04T18:50:21.005Z,9.6
2022-11-04T19:04:21.064Z,9.4
2022-11-04T19:18:21.102Z,9.6
2022-11-04T19:32:21.107Z,9.5
2022-11-04T19:46:21.108Z,9.4
2022-11-04T20:00:21.103Z,9.2
2022-11-04T20:14:21.125Z,9.2
2022-11-04T20:28:21.107Z,9.0
2022-11-04T20:42:21.122Z,9.0
2022-11-04T20:56:21.159Z,8.5
2022-11-04T21:10:21.204Z,8.3
2022-11-04T21:24:21.230Z,8.9
2022-11-04T21:38:21.217Z,9.3
2022-11-04T21:52:21.253Z,9.2
2022-11-04T22:06:21.434Z,8.9
2022-11-04T22:20:21.369Z,8.1
2022-11-04T22:34:21.379Z,8.4
2022-11-04T22:48:21.395Z,7.8
2022-11-04T23:02:21.639Z,7.8
2022-11-04T23:16:21.472Z,7.8
2022-11-04T23:30:21.459Z,7.2
2022-11-04T23:44:21.454Z,7.0
2022-11-04T23:58:21.454Z,7.6
